createdAt,value
2023-01-01T00:08:24.182Z,6.80
2023-01-01T00:20:26.654Z,7.90
2023-01-01T00:32:25.108Z,8.10
2023-01-01T00:44:25.471Z,8.20
2023-01-01T00:56:26.008Z,7.30
2023-01-01T01:08:30.668Z,6.80
2023-01-01T01:20:26.858Z,6.50
2023-01-01T01:32:27.303Z,7.30
2023-01-01T01:44:27.756Z,7.80
2023-01-01T01:56:28.190Z,8.90
2023-01-01T02:08:28.649Z,7.90
2023-01-01T02:20:29.097Z,8.40
2023-01-01T02:32:29.650Z,8.30
2023-01-01T02:44:30.056Z,8.90
2023-01-01T02:56:30.591Z,7.70
2023-01-01T03:08:30.927Z,7.90
2023-01-01T03:20:31.677Z,9.60
2023-01-01T03:32:31.829Z,10.90
2023-01-01T03:44:32.253Z,9.80
2023-01-01T03:56:32.712Z,9.70
2023-01-01T04:08:33.227Z,11.30
2023-01-01T04:20:33.640Z,9.60
2023-01-01T04:32:34.113Z,9.70
2023-01-01T04:44:34.554Z,8.90
2023-01-01T04:56:35.033Z,9.10
2023-01-01T05:08:35.459Z,10.20
2023-01-01T05:20:35.881Z,10.30
2023-01-01T05:32:36.325Z,9.40
2023-01-01T05:44:36.798Z,9.80
2023-01-01T05:56:37.227Z,10.60
2023-01-01T06:08:37.706Z,11.80
2023-01-01T06:20:38.125Z,11.30
2023-01-01T06:32:38.663Z,12.20
2023-01-01T06:44:39.055Z,10.40
2023-01-01T06:56:39.490Z,11.00
2023-01-01T07:08:39.984Z,13.40
2023-01-01T07:20:40.434Z,13.70
2023-01-01T07:32:40.866Z,19.90
2023-01-01T07:44:41.284Z,20.70
2023-01-01T07:56:41.768Z,17.40
2023-01-01T08:08:42.235Z,21.90
2023-01-01T08:20:42.693Z,19.80
2023-01-01T08:32:43.138Z,16.10
2023-01-01T08:44:43.571Z,18.40
2023-01-01T08:56:44.041Z,16.00
2023-01-01T09:08:44.492Z,16.50
2023-01-01T09:20:44.950Z,13.60
2023-01-01T09:32:45.361Z,12.80
2023-01-01T09:44:45.857Z,12.30
2023-01-01T09:56:46.269Z,12.20
2023-01-01T10:08:46.736Z,8.20
2023-01-01T10:20:47.198Z,8.20
2023-01-01T10:32:47.665Z,4.40
2023-01-01T10:44:48.121Z,4.60
2023-01-01T10:56:48.559Z,5.10
2023-01-01T11:08:49.047Z,5.80
2023-01-01T11:20:49.524Z,8.40
2023-01-01T11:32:55.207Z,7.70
2023-01-01T11:44:50.397Z,8.20
2023-01-01T11:56:50.886Z,8.00
2023-01-01T12:08:51.360Z,8.70
2023-01-01T12:20:51.748Z,8.50
2023-01-01T12:32:52.233Z,9.10
2023-01-01T12:44:52.700Z,9.20
2023-01-01T12:56:53.153Z,8.50
2023-01-01T13:08:53.610Z,9.10
2023-01-01T13:20:54.053Z,11.30
2023-01-01T13:32:54.505Z,9.30
2023-01-01T13:44:54.959Z,10.30
2023-01-01T13:56:55.411Z,9.70
2023-01-01T14:08:55.877Z,9.30
2023-01-01T14:20:56.311Z,9.10
2023-01-01T14:32:56.767Z,12.50
2023-01-01T14:44:57.226Z,10.30
2023-01-01T14:56:57.648Z,11.10
2023-01-01T15:08:58.142Z,9.80
2023-01-01T15:20:58.573Z,9.60
2023-01-01T15:32:59.016Z,9.30
2023-01-01T15:44:59.482Z,9.60
2023-01-01T15:56:59.947Z,9.70
2023-01-01T16:09:00.417Z,12.30
2023-01-01T16:21:00.859Z,11.60
2023-01-01T16:33:01.303Z,13.10
2023-01-01T16:45:01.731Z,13.70
2023-01-01T16:57:02.250Z,13.50
2023-01-01T17:09:02.622Z,16.30
2023-01-01T17:21:03.135Z,14.60
2023-01-01T17:33:03.648Z,15.10
2023-01-01T17:45:04.049Z,14.60
2023-01-01T17:57:04.459Z,17.40
2023-01-01T18:09:04.899Z,18.40
2023-01-01T18:21:05.371Z,22.70
2023-01-01T18:33:05.824Z,20.90
2023-01-01T18:45:06.254Z,28.10
2023-01-01T18:57:06.699Z,26.40
2023-01-01T19:09:07.178Z,27.70
2023-01-01T19:21:07.664Z,33.60
2023-01-01T19:33:08.087Z,25.80
2023-01-01T19:45:08.590Z,31.80
2023-01-01T19:57:09.001Z,37.80
2023-01-01T20:09:09.440Z,36.30
2023-01-01T20:21:09.905Z,38.60
2023-01-01T20:33:10.423Z,43.00
2023-01-01T20:45:10.819Z,41.70
2023-01-01T20:57:11.287Z,44.30
2023-01-01T21:09:11.695Z,63.40
2023-01-01T21:21:12.141Z,46.40
2023-01-01T21:33:12.578Z,38.00
2023-01-01T21:45:13.064Z,42.70
2023-01-01T21:57:13.500Z,29.70
2023-01-01T22:09:13.942Z,35.20
2023-01-01T22:21:14.396Z,34.70
2023-01-01T22:33:14.868Z,34.00
2023-01-01T22:45:15.279Z,23.40
2023-01-01T22:57:15.739Z,28.40
2023-01-01T23:09:16.263Z,30.80
2023-01-01T23:21:21.385Z,31.80
2023-01-01T23:33:17.130Z,36.40
2023-01-01T23:45:17.584Z,32.40
2023-01-01T23:57:18.028Z,26.90
